Latest Weather Observations for Sydney Airport

IDN60801

Issued at 12:34 pm EDT Saturday 7 March 2015 (issued every 30 minutes, with the page automatically refreshed every 10 minutes)

About weather observations | Map of weather stations | Latest weather observations for NSW | Other Formats
Station Details ID: 066037 Name: SYDNEY AIRPORT AMO Lat: -33.95 Lon: 151.17 Height: 6.0 m
Data from the previous 72 hours. | See also: Recent months at Sydney Airport
Date/Time
EDT
Temp
°C
App
Temp
°C
Dew
Point
Rel
Hum
%
Delta-T
°C
Wind Press
QNH
hPa
Press
MSL
hPa
Rain
since 9 am
mm
Dir
 
Spd
km/h
Gust
km/h
Spd
kts
Gust
kts
07/12:00pm 23.0 22.2 17.0 69 3.7 SE 17 20 9 11 1012.4 1012.4 0.0
07/11:30am 22.9 23.0 17.4 71 3.4 SE 13 19 7 10 1012.7 1012.7 0.0
07/11:00am 22.0 22.1 17.5 75 2.8 SSE 13 17 7 9 1013.0 1013.0 0.0
07/10:30am 21.2 21.3 17.5 79 2.3 SSE 13 15 7 8 1013.0 1013.0 0.0
07/10:00am 21.2 22.1 17.5 79 2.3 SE 9 13 5 7 1012.9 1012.9 0.0
07/09:30am 20.1 20.9 17.3 84 1.7 SE 9 13 5 7 1012.8 1012.8 0.0
07/09:00am 20.0 20.3 17.0 83 1.8 SSE 11 13 6 7 1012.7 1012.7 0.0
07/08:30am 19.6 19.9 17.0 85 1.6 SSE 11 13 6 7 1012.7 1012.7 0.0
07/08:00am 19.3 18.8 17.0 86 1.4 S 15 19 8 10 1012.5 1012.5 0.0
07/07:30am 19.0 18.2 16.1 83 1.7 SSE 15 19 8 10 1012.0 1012.0 0.0
07/06:30am 18.6 17.7 16.9 90 1.0 S 17 20 9 11 1011.3 1011.3 0.0
07/05:30am 19.0 16.6 17.4 90 1.0 SSW 26 32 14 17 1011.0 1011.0 0.0
07/05:00am 20.9 20.2 16.4 75 2.7 SE 15 17 8 9 1010.8 1010.8 0.0
07/04:30am 20.4 20.0 16.1 76 2.6 E 13 15 7 8 1010.5 1010.5 0.0
07/04:00am 20.8 19.6 16.0 74 2.9 ESE 17 20 9 11 1010.3 1010.3 0.0
07/03:30am 20.9 20.0 15.9 73 3.0 ESE 15 19 8 10 1010.1 1010.1 0.0
07/03:00am 20.7 19.5 16.2 75 2.7 ESE 17 22 9 12 1009.8 1009.8 0.0
07/02:30am 20.3 19.6 15.4 73 2.9 ESE 13 17 7 9 1009.9 1009.9 0.0
07/01:30am 20.5 18.3 13.3 63 4.1 ESE 17 19 9 10 1009.9 1009.9 0.0
07/01:00am 20.9 18.9 12.8 60 4.6 ESE 15 17 8 9 1010.0 1010.0 0.0
07/12:30am 21.2 19.7 13.2 60 4.6 ESE 13 17 7 9 1009.9 1009.9 0.0
 
Date/Time
EDT
Temp
°C
App
Temp
°C
Dew
Point
Rel
Hum
%
Delta-T
°C
Wind Press
QNH
hPa
Press
MSL
hPa
Rain
since 9 am
mm
Dir
 
Spd
km/h
Gust
km/h
Spd
kts
Gust
kts
06/11:30pm 21.4 20.0 13.4 60 4.6 ESE 13 15 7 8 1009.5 1009.5 0.0
06/11:00pm 22.0 20.4 12.7 55 5.3 ESE 13 15 7 8 1009.4 1009.4 0.0
06/10:30pm 21.6 19.5 12.4 55 5.2 ESE 15 17 8 9 1009.2 1009.2 0.0
06/10:00pm 22.2 20.4 13.2 56 5.2 SE 15 19 8 10 1008.9 1008.9 0.0
06/09:30pm 22.6 21.6 14.7 61 4.7 SSE 13 15 7 8 1008.6 1008.6 0.0
06/09:00pm 22.7 23.2 11.7 49 6.2 CALM 0 0 0 0 1007.9 1007.9 0.0
06/08:30pm 23.2 22.8 11.0 46 6.8 ENE 4 9 2 5 1007.1 1007.1 0.0
06/08:00pm 23.5 22.0 10.7 44 7.1 ENE 9 11 5 6 1006.3 1006.3 0.0
06/07:30pm 23.7 21.0 10.3 42 7.4 ENE 15 19 8 10 1005.7 1005.7 0.0
06/07:00pm 24.7 21.2 10.3 40 8.0 E 19 20 10 11 1005.0 1005.0 0.0
06/05:30pm 26.6 22.2 6.7 28 10.4 ESE 19 22 10 12 1004.1 1004.1 0.0
06/05:00pm 27.3 22.5 5.5 25 11.3 ESE 20 24 11 13 1003.8 1003.8 0.0
06/04:30pm 27.1 20.7 5.4 25 11.2 SE 28 35 15 19 1003.6 1003.6 0.0
06/04:00pm 29.0 22.6 3.2 19 13.0 WSW 26 37 14 20 1003.4 1003.4 0.0
06/03:42pm 29.8 22.9 2.7 17 13.5 WSW 28 54 15 29 1003.4 1003.4 0.0
06/03:30pm 29.7 24.4 3.2 18 13.3 W 20 28 11 15 1003.5 1003.5 0.0
06/03:00pm 29.0 23.1 3.8 20 12.8 SW 24 35 13 19 1003.9 1003.9 0.0
06/02:30pm 28.4 23.0 4.7 22 12.1 SW 22 33 12 18 1004.4 1004.4 0.0
06/02:00pm 28.2 21.4 0.6 16 13.2 W 26 37 14 20 1004.7 1004.7 0.0
06/01:30pm 27.5 22.1 1.4 18 12.5 W 19 30 10 16 1004.9 1004.9 0.0
06/01:00pm 28.0 21.0 -0.8 15 13.4 W 26 37 14 20 1005.3 1005.3 0.0
06/12:30pm 26.2 17.5 -0.8 17 12.3 W 35 48 19 26 1005.9 1005.9 0.0
06/12:13pm 25.4 16.9 -1.9 16 12.2 W 33 52 18 28 1006.3 1006.3 0.0
06/12:00pm 25.0 15.8 -1.1 18 11.8 W 37 50 20 27 1006.4 1006.4 0.0
06/11:30am 24.0 14.3 -2.2 17 11.5 W 39 50 21 27 1006.9 1006.9 0.0
06/11:00am 22.7 14.3 -2.2 19 10.8 W 32 39 17 21 1007.2 1007.2 0.0
06/10:39am 22.3 14.5 -0.9 21 10.3 W 30 50 16 27 1007.4 1007.4 0.0
06/10:30am 21.5 13.2 -1.4 21 10.0 W 32 43 17 23 1007.5 1007.5 0.0
06/10:00am 22.3 13.9 -1.3 20 10.4 WNW 33 46 18 25 1007.4 1007.4 0.0
06/09:30am 21.2 13.9 0.3 25 9.4 NW 28 35 15 19 1007.5 1007.5 0.0
06/09:00am 20.6 14.5 3.0 31 8.3 NW 24 30 13 16 1007.6 1007.6 0.0
06/08:30am 19.3 13.9 6.3 42 6.5 NNW 24 33 13 18 1007.6 1007.6 0.0
06/08:00am 18.8 15.0 9.1 53 5.1 NNW 19 24 10 13 1008.0 1008.0 0.0
06/07:30am 18.2 14.4 9.7 57 4.5 NW 20 30 11 16 1008.1 1008.1 0.0
06/07:00am 17.5 13.9 9.7 60 4.1 NW 19 26 10 14 1008.1 1008.1 0.0
06/06:30am 16.9 13.2 10.1 64 3.6 NW 20 26 11 14 1008.1 1008.1 0.0
06/06:00am 17.1 13.5 9.9 62 3.8 NW 19 22 10 12 1008.4 1008.4 0.0
06/05:30am 17.2 13.6 10.0 62 3.8 NNW 19 24 10 13 1008.4 1008.4 0.0
06/05:00am 17.2 14.7 9.8 61 3.9 NNW 13 19 7 10 1008.6 1008.6 0.0
06/04:30am 17.1 14.7 10.1 63 3.7 NNW 13 17 7 9 1009.1 1009.1 0.0
06/04:00am 16.8 14.4 10.0 64 3.6 NW 13 15 7 8 1009.4 1009.4 0.0
06/03:30am 17.1 15.5 10.1 63 3.7 NW 9 13 5 7 1009.9 1009.9 0.0
06/03:00am 16.9 14.5 9.9 63 3.7 NNW 13 17 7 9 1010.2 1010.2 0.0
06/02:30am 17.1 14.7 9.9 62 3.8 WNW 13 17 7 9 1010.6 1010.6 0.0
06/02:00am 17.2 13.9 9.6 61 4.0 WNW 17 20 9 11 1011.1 1011.1 0.0
06/01:30am 17.6 14.3 9.6 59 4.2 WNW 17 20 9 11 1011.6 1011.6 0.0
06/01:00am 17.9 15.0 9.8 59 4.3 W 15 17 8 9 1011.9 1011.9 0.0
06/12:30am 18.5 16.0 9.6 56 4.7 W 13 15 7 8 1012.1 1012.1 0.0
06/12:00am 18.8 15.5 9.5 54 4.9 WNW 17 19 9 10 1012.4 1012.4 0.0
 
Date/Time
EDT
Temp
°C
App
Temp
°C
Dew
Point
Rel
Hum
%
Delta-T
°C
Wind Press
QNH
hPa
Press
MSL
hPa
Rain
since 9 am
mm
Dir
 
Spd
km/h
Gust
km/h
Spd
kts
Gust
kts
05/11:30pm 19.0 15.8 10.0 56 4.8 W 17 20 9 11 1012.6 1012.6 0.0
05/11:00pm 20.0 17.2 9.9 52 5.4 S 15 19 8 10 1012.6 1012.6 0.0
05/10:30pm 20.3 16.7 9.9 51 5.6 S 19 26 10 14 1012.6 1012.6 0.0
05/10:00pm 20.4 17.0 9.3 49 5.9 SSE 17 22 9 12 1012.7 1012.7 0.0
05/09:30pm 20.3 16.1 9.9 51 5.6 S 22 28 12 15 1012.7 1012.7 0.0
05/09:00pm 20.5 15.8 10.6 53 5.4 SSE 26 33 14 18 1012.3 1012.3 0.0
05/08:30pm 20.5 15.0 9.2 48 6.0 SSE 28 33 15 18 1011.7 1011.7 0.0
05/08:00pm 20.4 15.0 9.5 49 5.8 SSE 28 37 15 20 1011.3 1011.3 0.0
05/07:30pm 20.8 15.1 9.8 49 5.9 SSE 30 37 16 20 1011.0 1011.0 0.0
05/07:00pm 21.1 15.4 9.8 48 6.1 SSE 30 39 16 21 1010.4 1010.4 0.0
05/06:30pm 22.0 15.5 9.1 43 6.9 SSE 33 41 18 22 1009.9 1009.9 0.0
05/06:00pm 22.0 14.7 8.6 42 7.1 SSE 37 46 20 25 1009.6 1009.6 0.0
05/05:30pm 22.5 14.9 9.1 42 7.2 SSE 39 50 21 27 1009.1 1009.1 0.0
05/05:00pm 22.0 14.3 8.8 43 7.0 SSE 39 54 21 29 1009.0 1009.0 0.0
05/04:30pm 22.1 14.5 11.8 52 5.8 SSE 43 52 23 28 1009.0 1009.0 0.0
05/04:00pm 21.9 15.0 11.7 52 5.7 S 39 50 21 27 1009.1 1009.1 0.0
05/03:30pm 21.9 15.3 12.6 55 5.3 S 39 48 21 26 1009.0 1009.0 0.0
05/03:00pm 22.5 16.7 13.9 58 5.0 SSE 37 48 20 26 1008.7 1008.7 0.0
05/02:30pm 22.4 16.8 15.4 64 4.2 S 39 50 21 27 1008.7 1008.7 0.0
05/02:00pm 22.3 16.6 15.1 63 4.3 S 39 52 21 28 1008.5 1008.5 0.0
05/01:30pm 22.4 16.2 16.5 69 3.6 SSE 44 59 24 32 1008.5 1008.5 0.0
05/01:11pm 22.9 17.5 16.1 65 4.1 SSW 39 56 21 30 1007.9 1007.9 0.0
05/01:07pm 26.3 19.7 8.4 32 9.7 SSW 33 56 18 30 1007.6 1007.6 0.0
05/01:00pm 26.0 19.4 7.9 31 9.7 SW 32 41 17 22 1007.5 1007.5 0.0
05/12:30pm 26.1 18.8 4.5 25 10.9 WSW 32 48 17 26 1007.5 1007.5 0.0
05/12:07pm 26.0 17.5 5.3 26 10.6 WSW 39 57 21 31 1007.6 1007.6 0.0
05/12:00pm 25.8 16.1 3.9 24 10.9 WSW 44 57 24 31 1007.6 1007.6 0.0
05/11:30am 25.6 17.4 4.9 26 10.5 WSW 37 48 20 26 1007.5 1007.5 0.0
05/11:00am 24.2 18.9 8.3 36 8.5 SW 26 32 14 17 1007.8 1007.8 0.0
05/10:30am 24.9 19.4 6.1 30 9.7 SW 24 32 13 17 1007.4 1007.4 0.0
05/10:00am 25.2 18.4 5.1 27 10.2 W 30 35 16 19 1006.7 1006.7 0.0
05/09:30am 24.7 19.2 3.9 26 10.3 WSW 22 39 12 21 1006.5 1006.5 0.0
05/09:00am 25.2 19.1 4.8 27 10.3 WSW 26 35 14 19 1006.1 1006.1 0.0
05/08:30am 23.5 19.8 6.4 33 8.8 WSW 15 20 8 11 1005.7 1005.7 0.0
05/08:00am 21.8 16.5 7.0 38 7.6 W 24 30 13 16 1005.9 1005.9 0.0
05/07:30am 20.5 18.8 16.2 76 2.6 WSW 20 28 11 15 1005.6 1005.6 0.0
05/07:00am 20.0 21.4 18.7 92 0.8 SW 9 15 5 8 1005.1 1005.1 0.0
05/06:30am 19.7 20.7 18.7 94 0.6 W 11 17 6 9 1005.0 1005.0 0.0
05/06:00am 21.0 22.6 19.1 89 1.2 NW 9 11 5 6 1004.5 1004.5 0.0
05/05:30am 21.0 22.6 19.1 89 1.2 NNW 9 11 5 6 1004.3 1004.3 0.0
05/05:00am 21.1 22.7 19.2 89 1.2 NW 9 11 5 6 1004.3 1004.3 0.0
05/04:30am 21.1 22.4 19.2 89 1.2 NW 11 13 6 7 1004.4 1004.4 0.0
05/04:00am 21.4 22.8 19.5 89 1.2 WNW 11 13 6 7 1004.8 1004.8 0.0
05/03:30am 21.4 23.6 19.5 89 1.2 NW 7 9 4 5 1005.1 1005.1 0.0
05/03:00am 21.8 23.7 19.8 88 1.3 NW 9 11 5 6 1005.5 1005.5 0.0
05/02:30am 22.4 24.4 19.9 86 1.6 NW 9 11 5 6 1005.7 1005.7 0.0
05/02:00am 22.7 24.8 20.1 85 1.7 NW 9 11 5 6 1006.2 1006.2 0.0
05/01:30am 22.8 25.3 20.2 85 1.7 NW 7 9 4 5 1006.7 1006.7 0.0
05/01:00am 23.2 25.6 20.1 83 2.0 NW 7 7 4 4 1007.3 1007.3 0.0
05/12:30am 23.6 26.0 20.0 80 2.3 N 7 7 4 4 1007.6 1007.6 0.0
05/12:00am 23.0 25.7 20.2 84 1.8 NNW 6 7 3 4 1007.9 1007.9 0.0
 
Date/Time
EDT
Temp
°C
App
Temp
°C
Dew
Point
Rel
Hum
%
Delta-T
°C
Wind Press
QNH
hPa
Press
MSL
hPa
Rain
since 9 am
mm
Dir
 
Spd
km/h
Gust
km/h
Spd
kts
Gust
kts
04/11:30pm 23.5 25.1 19.9 80 2.3 WNW 11 15 6 8 1008.3 1008.3 0.0
04/11:00pm 24.6 26.8 19.6 73 3.2 NE 7 7 4 4 1008.4 1008.4 0.0
04/10:30pm 24.7 27.1 19.6 73 3.3 NNE 6 7 3 4 1008.5 1008.5 0.0
04/10:00pm 24.0 26.4 20.0 78 2.6 NNE 7 9 4 5 1008.7 1008.7 0.0
04/09:30pm 24.0 25.3 20.1 79 2.5 NNE 13 17 7 9 1008.8 1008.8 0.0
04/09:00pm 23.3 24.9 19.9 81 2.2 NE 11 13 6 7 1008.6 1008.6 0.0
04/08:30pm 23.6 25.5 19.7 79 2.5 NE 9 13 5 7 1008.4 1008.4 0.0
04/08:00pm 24.1 26.0 19.8 77 2.8 NE 9 13 5 7 1008.3 1008.3 0.0
04/07:30pm 24.3 25.1 19.8 76 2.9 NE 15 20 8 11 1008.1 1008.1 0.0
04/07:00pm 24.7 24.4 19.6 73 3.3 NE 20 26 11 14 1007.9 1007.9 0.0
04/06:30pm 25.2 24.3 19.8 72 3.5 ENE 24 28 13 15 1007.9 1007.9 0.0
04/06:00pm 26.0 24.7 19.8 68 4.0 E 26 32 14 17 1008.2 1008.2 0.0
04/05:30pm 26.3 25.8 20.0 68 4.1 E 22 28 12 15 1008.3 1008.3 0.0
04/05:00pm 26.5 26.4 19.9 67 4.3 E 20 24 11 13 1008.4 1008.4 0.0
04/04:30pm 27.0 26.7 19.6 64 4.8 E 20 26 11 14 1008.7 1008.7 0.0
04/04:00pm 26.9 26.6 19.5 64 4.8 E 20 26 11 14 1009.2 1009.2 0.0
04/03:30pm 26.8 25.7 19.5 64 4.7 ENE 24 32 13 17 1009.4 1009.4 0.0
04/03:00pm 27.5 27.3 19.3 61 5.3 ESE 19 26 10 14 1009.9 1009.9 0.0
04/02:30pm 26.8 27.0 20.2 67 4.3 SSE 19 24 10 13 1010.2 1010.2 0.0
04/02:00pm 26.5 26.8 19.5 65 4.5 SE 17 19 9 10 1010.7 1010.7 0.0
04/01:30pm 26.6 26.5 19.5 65 4.6 SE 19 20 10 11 1011.2 1011.2 0.0
04/01:00pm 25.3 25.9 19.4 70 3.8 ESE 15 19 8 10 1011.5 1011.5 0.0

Other Formats:

Comma delimited format used in spreadsheet applications
http://www.bom.gov.au/fwo/IDN60801/IDN60801.94767.axf

JavaScript Object Notation format (JSON) in row-major order
http://www.bom.gov.au/fwo/IDN60801/IDN60801.94767.json